Time;durP1;ratioP1;P1;durP2;ratioP2;P2;SDS_P1;SDS_P2;PMS_P1;PMS_P2;Temp;Humidity;BMP_temperature;BMP_pressure;BME280_temperature;BME280_humidity;BME280_pressure;Samples;Min_cycle;Max_cycle;Signal;HPM_P1;HPM_P2
2023/06/29 00:01:33;;;;;;;9.88;6.78;;;;;25.90;101489.00;;;;5004658;28;20280;-77
2023/06/29 00:04:01;;;;;;;10.75;6.65;;;;;25.80;101488.00;;;;5009484;28;20193;-77
2023/06/29 00:06:36;;;;;;;9.00;6.57;;;;;25.80;101487.00;;;;5008524;28;20217;-77
2023/06/29 00:09:04;;;;;;;8.90;6.55;;;;;25.80;101490.00;;;;5009024;28;20228;-78
2023/06/29 00:11:31;;;;;;;9.02;6.55;;;;;25.80;101485.00;;;;5009481;28;20205;-77
2023/06/29 00:13:59;;;;;;;9.10;7.22;;;;;25.80;101490.00;;;;5007155;28;20232;-78
2023/06/29 00:16:26;;;;;;;7.93;6.40;;;;;25.70;101486.00;;;;5009792;28;20197;-78
2023/06/29 00:18:55;;;;;;;8.60;6.30;;;;;25.70;101488.00;;;;5003146;28;20212;-77
2023/06/29 00:21:22;;;;;;;11.40;6.97;;;;;25.70;101482.00;;;;5011443;28;20197;-78
2023/06/29 00:23:53;;;;;;;9.75;7.35;;;;;25.70;101484.00;;;;5010684;28;20569;-77
2023/06/29 00:26:20;;;;;;;9.88;7.47;;;;;25.70;101479.00;;;;5008738;28;20209;-77
2023/06/29 00:28:48;;;;;;;9.82;7.20;;;;;25.70;101481.00;;;;5008900;28;20229;-77
2023/06/29 00:31:15;;;;;;;10.30;7.80;;;;;25.70;101472.00;;;;5006724;28;20590;-77
2023/06/29 00:33:42;;;;;;;9.68;7.28;;;;;25.70;101471.00;;;;5005326;28;20709;-77
2023/06/29 00:36:09;;;;;;;11.40;6.75;;;;;25.70;101471.00;;;;5009079;28;20208;-77
2023/06/29 00:38:37;;;;;;;10.43;6.60;;;;;25.70;101466.00;;;;5012248;28;20207;-77
2023/06/29 00:41:05;;;;;;;10.50;8.20;;;;;25.70;101473.00;;;;5004337;28;20197;-77
2023/06/29 00:43:32;;;;;;;9.82;7.28;;;;;25.70;101464.00;;;;5004469;28;20209;-77
2023/06/29 00:46:02;;;;;;;9.00;6.53;;;;;25.70;101451.00;;;;5009195;28;20196;-78
2023/06/29 00:48:29;;;;;;;10.48;7.60;;;;;25.70;101456.00;;;;5007191;28;20560;-77
2023/06/29 00:50:56;;;;;;;10.68;7.38;;;;;25.70;101456.00;;;;5007030;28;20205;-77
2023/06/29 00:53:24;;;;;;;12.52;7.78;;;;;25.70;101455.00;;;;5003197;28;20741;-78
2023/06/29 00:55:51;;;;;;;10.35;7.70;;;;;25.70;101452.00;;;;5004990;28;20686;-77
2023/06/29 00:58:20;;;;;;;9.00;7.25;;;;;25.70;101447.00;;;;5009117;28;20209;-77
2023/06/29 01:00:47;;;;;;;10.25;7.22;;;;;25.70;101440.00;;;;5008594;28;20547;-77
2023/06/29 01:03:14;;;;;;;9.63;7.25;;;;;25.70;101443.00;;;;5005793;28;20279;-77
2023/06/29 01:05:42;;;;;;;12.20;7.10;;;;;25.70;101436.00;;;;5008166;28;20667;-78
2023/06/29 01:08:14;;;;;;;9.68;7.13;;;;;25.70;101436.00;;;;5004300;28;20684;-77
2023/06/29 01:10:43;;;;;;;8.65;6.40;;;;;25.70;101429.00;;;;5007846;28;20975;-77
2023/06/29 01:13:11;;;;;;;9.20;6.53;;;;;25.70;101426.00;;;;5006276;28;20236;-78
2023/06/29 01:15:41;;;;;;;9.45;7.00;;;;;25.60;101432.00;;;;5009558;28;20213;-77
2023/06/29 01:18:09;;;;;;;10.32;7.22;;;;;25.70;101437.00;;;;5007845;28;20212;-77
2023/06/29 01:20:38;;;;;;;7.93;6.90;;;;;25.70;101435.00;;;;5007140;28;20204;-77
2023/06/29 01:23:10;;;;;;;8.95;7.35;;;;;25.60;101438.00;;;;5005504;28;20688;-77
2023/06/29 01:25:39;;;;;;;10.07;7.85;;;;;25.60;101438.00;;;;5007641;28;20200;-77
2023/06/29 01:28:07;;;;;;;9.18;7.35;;;;;25.60;101439.00;;;;5004456;28;20248;-77
2023/06/29 01:30:39;;;;;;;9.57;7.43;;;;;25.60;101440.00;;;;4991754;28;20210;-77
2023/06/29 01:33:07;;;;;;;8.30;6.43;;;;;25.60;101446.00;;;;5006285;28;20221;-78
2023/06/29 01:35:34;;;;;;;9.30;6.88;;;;;25.60;101440.00;;;;5006242;28;20216;-77
2023/06/29 01:38:07;;;;;;;10.57;7.53;;;;;25.60;101437.00;;;;5006613;28;20319;-77
2023/06/29 01:40:35;;;;;;;8.57;6.88;;;;;25.60;101439.00;;;;5005993;28;20199;-77
2023/06/29 01:43:04;;;;;;;10.13;7.57;;;;;25.60;101431.00;;;;5003350;28;20209;-77
2023/06/29 01:45:32;;;;;;;9.13;7.25;;;;;25.60;101426.00;;;;5005999;28;20263;-77
2023/06/29 01:48:01;;;;;;;10.00;7.13;;;;;25.60;101418.00;;;;5008175;28;20212;-77
2023/06/29 01:50:28;;;;;;;11.52;7.28;;;;;25.60;101417.00;;;;5008171;28;20208;-77
2023/06/29 01:52:56;;;;;;;9.35;6.85;;;;;25.60;101416.00;;;;5006969;28;20197;-78
2023/06/29 01:55:24;;;;;;;12.40;7.53;;;;;25.60;101415.00;;;;5007251;28;20200;-77
2023/06/29 01:57:52;;;;;;;7.70;6.40;;;;;25.60;101415.00;;;;5006814;28;20193;-77
2023/06/29 02:00:22;;;;;;;10.75;7.32;;;;;25.60;101418.00;;;;5001375;28;20203;-77
2023/06/29 02:02:49;;;;;;;11.05;7.28;;;;;25.60;101412.00;;;;5003312;28;20288;-77
2023/06/29 02:05:17;;;;;;;9.70;7.75;;;;;25.60;101404.00;;;;5004796;28;20666;-77
2023/06/29 02:07:45;;;;;;;10.07;7.55;;;;;25.60;101408.00;;;;5005222;28;20873;-77
2023/06/29 02:10:12;;;;;;;10.20;7.22;;;;;25.60;101403.00;;;;5007912;28;20539;-78
2023/06/29 02:12:40;;;;;;;9.23;7.22;;;;;25.60;101411.00;;;;5007186;28;20197;-78
2023/06/29 02:15:08;;;;;;;8.45;6.68;;;;;25.60;101407.00;;;;5008066;28;20231;-77
2023/06/29 02:17:37;;;;;;;10.63;7.90;;;;;25.60;101405.00;;;;5002296;28;20205;-77
2023/06/29 02:20:05;;;;;;;9.00;7.05;;;;;25.60;101406.00;;;;5006424;28;20546;-77
2023/06/29 02:22:33;;;;;;;8.98;7.28;;;;;25.60;101398.00;;;;5007283;28;21038;-77
2023/06/29 02:25:00;;;;;;;10.40;8.23;;;;;25.60;101393.00;;;;5008146;28;20212;-77
2023/06/29 02:27:27;;;;;;;8.68;6.60;;;;;25.60;101392.00;;;;5006887;28;20204;-77
2023/06/29 02:29:54;;;;;;;10.90;8.10;;;;;25.60;101392.00;;;;5006198;28;20204;-77
2023/06/29 02:32:22;;;;;;;9.75;7.55;;;;;25.60;101385.00;;;;5005101;28;20682;-77
2023/06/29 02:34:50;;;;;;;9.27;7.15;;;;;25.60;101388.00;;;;4999814;28;20221;-77
2023/06/29 02:37:18;;;;;;;13.90;7.72;;;;;25.60;101385.00;;;;5006580;28;20197;-78
2023/06/29 02:39:45;;;;;;;10.23;7.80;;;;;25.60;101379.00;;;;5007996;28;20565;-78
2023/06/29 02:42:12;;;;;;;11.27;8.23;;;;;25.60;101381.00;;;;5005712;28;20205;-77
2023/06/29 02:44:40;;;;;;;10.07;7.47;;;;;25.60;101378.00;;;;5007779;28;20197;-77
2023/06/29 02:47:07;;;;;;;11.10;7.88;;;;;25.60;101374.00;;;;5005844;28;20261;-77
2023/06/29 02:49:35;;;;;;;11.23;7.85;;;;;25.60;101368.00;;;;5005069;28;20204;-77
2023/06/29 02:52:04;;;;;;;10.93;8.30;;;;;25.60;101376.00;;;;5004490;28;20659;-78
2023/06/29 02:54:31;;;;;;;12.90;8.18;;;;;25.60;101368.00;;;;5008099;28;20247;-77
2023/06/29 02:56:58;;;;;;;11.02;7.75;;;;;25.60;101366.00;;;;5012918;28;20205;-77
2023/06/29 02:59:25;;;;;;;11.73;7.90;;;;;25.60;101363.00;;;;5005055;28;20201;-77
2023/06/29 03:01:53;;;;;;;12.88;8.25;;;;;25.60;101362.00;;;;5013293;28;20547;-77
2023/06/29 03:04:20;;;;;;;9.50;7.68;;;;;25.60;101366.00;;;;5013942;28;20204;-77
2023/06/29 03:06:48;;;;;;;9.80;7.65;;;;;25.50;101365.00;;;;5012959;28;20224;-77
2023/06/29 03:09:17;;;;;;;10.23;7.10;;;;;25.50;101366.00;;;;5007569;28;20203;-77
2023/06/29 03:11:44;;;;;;;9.63;7.47;;;;;25.50;101363.00;;;;5012982;28;20192;-78
2023/06/29 03:14:11;;;;;;;11.05;7.63;;;;;25.50;101366.00;;;;5007448;28;20235;-77
2023/06/29 03:16:39;;;;;;;9.30;7.20;;;;;25.50;101372.00;;;;5012850;28;20204;-78
2023/06/29 03:19:06;;;;;;;9.88;7.43;;;;;25.50;101359.00;;;;5009639;28;20204;-77
2023/06/29 03:21:34;;;;;;;9.45;7.40;;;;;25.50;101365.00;;;;5009222;28;20197;-78
2023/06/29 03:24:01;;;;;;;11.32;7.95;;;;;25.50;101368.00;;;;5007662;28;20200;-77
2023/06/29 03:26:29;;;;;;;10.63;7.78;;;;;25.50;101359.00;;;;5013260;28;20201;-77
2023/06/29 03:28:57;;;;;;;9.75;7.85;;;;;25.50;101356.00;;;;5010443;28;20209;-77
2023/06/29 03:31:24;;;;;;;9.20;6.82;;;;;25.50;101352.00;;;;5010954;28;20193;-78
2023/06/29 03:33:51;;;;;;;11.13;7.97;;;;;25.50;101351.00;;;;5010778;28;20267;-77
2023/06/29 03:36:19;;;;;;;10.13;7.88;;;;;25.50;101356.00;;;;5013739;28;20649;-78
2023/06/29 03:38:46;;;;;;;10.70;8.18;;;;;25.40;101351.00;;;;5012506;28;20658;-78
2023/06/29 03:41:14;;;;;;;10.45;7.38;;;;;25.40;101349.00;;;;5009049;28;20204;-77
2023/06/29 03:43:43;;;;;;;10.52;7.38;;;;;25.40;101341.00;;;;4999372;28;20206;-77
2023/06/29 03:46:12;;;;;;;10.13;7.80;;;;;25.40;101343.00;;;;5010568;28;20201;-77
2023/06/29 03:48:39;;;;;;;9.93;7.22;;;;;25.50;101340.00;;;;5005960;28;20206;-77
2023/06/29 03:51:06;;;;;;;12.30;8.25;;;;;25.40;101336.00;;;;4998902;28;20213;-77
2023/06/29 03:53:33;;;;;;;11.57;7.90;;;;;25.50;101343.00;;;;5010619;28;20694;-77
2023/06/29 03:56:01;;;;;;;9.85;7.88;;;;;25.50;101333.00;;;;5001693;28;20193;-78
2023/06/29 03:58:28;;;;;;;11.85;8.10;;;;;25.40;101335.00;;;;5007577;28;20211;-78
2023/06/29 04:00:57;;;;;;;13.05;7.53;;;;;25.40;101338.00;;;;5010890;28;20212;-77
2023/06/29 04:03:24;;;;;;;14.15;8.35;;;;;25.50;101338.00;;;;5014180;28;20196;-78
2023/06/29 04:05:51;;;;;;;11.45;8.07;;;;;25.40;101341.00;;;;5012049;28;20197;-78
2023/06/29 04:08:19;;;;;;;11.43;8.57;;;;;25.40;101336.00;;;;5009283;28;20232;-77
2023/06/29 04:10:46;;;;;;;11.98;8.20;;;;;25.40;101335.00;;;;5009497;28;20209;-77
2023/06/29 04:13:13;;;;;;;12.15;8.77;;;;;25.40;101330.00;;;;5009334;28;20209;-77
2023/06/29 04:15:40;;;;;;;11.07;7.55;;;;;25.40;101325.00;;;;5004446;28;20229;-77
2023/06/29 04:18:09;;;;;;;12.00;8.30;;;;;25.40;101326.00;;;;5010937;28;20204;-77
2023/06/29 04:20:37;;;;;;;11.77;8.73;;;;;25.40;101316.00;;;;5007809;28;20212;-77
2023/06/29 04:23:05;;;;;;;10.25;8.18;;;;;25.40;101320.00;;;;5009313;28;20197;-77
2023/06/29 04:25:33;;;;;;;13.15;8.93;;;;;25.40;101318.00;;;;5010242;28;20217;-77
2023/06/29 04:28:00;;;;;;;11.23;8.23;;;;;25.50;101320.00;;;;5003533;28;20279;-78
2023/06/29 04:30:27;;;;;;;13.68;8.32;;;;;25.50;101315.00;;;;5004557;28;20221;-78
2023/06/29 04:32:56;;;;;;;14.25;9.20;;;;;25.50;101316.00;;;;5006752;28;20205;-77
2023/06/29 04:35:24;;;;;;;11.40;8.43;;;;;25.50;101312.00;;;;5008100;28;20224;-77
2023/06/29 04:37:52;;;;;;;12.65;9.50;;;;;25.50;101315.00;;;;5009550;28;20201;-77
2023/06/29 04:40:19;;;;;;;12.27;8.95;;;;;25.50;101314.00;;;;5010469;28;20208;-77
2023/06/29 04:42:48;;;;;;;11.73;8.35;;;;;25.50;101309.00;;;;5008873;28;20284;-77
2023/06/29 04:45:18;;;;;;;12.38;9.18;;;;;25.50;101309.00;;;;5008150;28;20300;-77
2023/06/29 04:47:46;;;;;;;11.18;8.55;;;;;25.50;101304.00;;;;5008823;28;20595;-78
2023/06/29 04:50:14;;;;;;;14.13;8.55;;;;;25.50;101301.00;;;;5001747;28;20193;-78
2023/06/29 04:52:43;;;;;;;11.73;8.90;;;;;25.50;101306.00;;;;5010144;28;20678;-77
2023/06/29 04:55:11;;;;;;;10.45;8.30;;;;;25.60;101307.00;;;;5009085;28;20315;-78
2023/06/29 04:57:39;;;;;;;11.70;8.90;;;;;25.60;101306.00;;;;5009609;28;20197;-77
2023/06/29 05:00:10;;;;;;;11.80;8.77;;;;;25.60;101307.00;;;;5008915;28;20205;-78
2023/06/29 05:02:38;;;;;;;11.95;8.20;;;;;25.60;101306.00;;;;5008255;28;20969;-78
2023/06/29 05:05:06;;;;;;;13.15;7.78;;;;;25.60;101312.00;;;;5007570;28;20205;-78
2023/06/29 05:07:33;;;;;;;14.38;8.85;;;;;25.60;101313.00;;;;5004572;28;20241;-78
2023/06/29 05:10:02;;;;;;;12.55;8.30;;;;;25.70;101309.00;;;;5000701;28;20204;-78
2023/06/29 05:12:30;;;;;;;12.82;9.20;;;;;25.70;101310.00;;;;5006095;28;20197;-78
2023/06/29 05:14:57;;;;;;;13.05;9.32;;;;;25.70;101306.00;;;;5011155;28;20600;-78
2023/06/29 05:17:24;;;;;;;12.68;8.80;;;;;25.70;101309.00;;;;5008136;28;20200;-77
2023/06/29 05:19:52;;;;;;;13.40;8.98;;;;;25.70;101307.00;;;;5008471;28;20212;-77
2023/06/29 05:22:19;;;;;;;11.70;8.82;;;;;25.70;101308.00;;;;5004844;28;20208;-77
2023/06/29 05:24:46;;;;;;;11.40;8.63;;;;;25.70;101306.00;;;;4999405;28;20208;-77
2023/06/29 05:27:15;;;;;;;16.67;10.18;;;;;25.80;101304.00;;;;5002810;28;20197;-78
2023/06/29 05:29:42;;;;;;;12.85;9.35;;;;;25.80;101296.00;;;;4997821;28;21054;-76
2023/06/29 05:32:10;;;;;;;14.18;9.98;;;;;25.80;101293.00;;;;5001651;28;20206;-75
2023/06/29 05:34:37;;;;;;;13.07;9.30;;;;;25.80;101302.00;;;;5005273;28;20225;-77
2023/06/29 05:37:05;;;;;;;10.13;8.50;;;;;25.90;101296.00;;;;5006701;28;20203;-76
2023/06/29 05:39:32;;;;;;;15.75;10.77;;;;;25.90;101289.00;;;;5007218;28;20204;-78
2023/06/29 05:41:59;;;;;;;15.95;10.73;;;;;25.90;101294.00;;;;5003163;28;20280;-77
2023/06/29 05:44:28;;;;;;;16.58;10.23;;;;;25.90;101287.00;;;;5003825;28;20674;-79
2023/06/29 05:46:56;;;;;;;18.05;11.43;;;;;25.90;101291.00;;;;5004794;28;20575;-79
2023/06/29 05:49:23;;;;;;;13.65;9.90;;;;;25.90;101289.00;;;;5007450;28;20196;-79
2023/06/29 05:51:51;;;;;;;15.65;11.05;;;;;25.90;101288.00;;;;5005363;28;20934;-78
2023/06/29 05:54:18;;;;;;;15.70;11.30;;;;;25.90;101289.00;;;;5006562;28;20251;-78
2023/06/29 05:56:46;;;;;;;16.65;12.50;;;;;25.90;101288.00;;;;5004738;28;20221;-79
2023/06/29 05:59:13;;;;;;;13.70;10.63;;;;;25.90;101297.00;;;;5004189;28;20308;-79
2023/06/29 06:01:42;;;;;;;16.00;11.40;;;;;25.90;101293.00;;;;5004769;28;20738;-78
2023/06/29 06:04:09;;;;;;;17.05;11.77;;;;;25.90;101291.00;;;;5005407;28;20205;-78
2023/06/29 06:06:37;;;;;;;16.35;11.88;;;;;26.00;101293.00;;;;5005325;28;20225;-79
2023/06/29 06:09:04;;;;;;;17.60;11.60;;;;;26.00;101291.00;;;;5005321;28;20228;-78
2023/06/29 06:11:31;;;;;;;16.25;10.27;;;;;26.00;101302.00;;;;5008677;28;20205;-78
2023/06/29 06:13:58;;;;;;;15.82;11.63;;;;;26.00;101302.00;;;;5001579;28;20212;-79
2023/06/29 06:16:26;;;;;;;18.15;12.30;;;;;26.00;101300.00;;;;5004623;28;20224;-78
2023/06/29 06:18:55;;;;;;;16.17;10.93;;;;;26.00;101297.00;;;;5007780;28;20222;-78
2023/06/29 06:21:23;;;;;;;16.67;11.82;;;;;26.00;101299.00;;;;5009203;28;20216;-78
2023/06/29 06:23:51;;;;;;;15.73;10.57;;;;;26.00;101297.00;;;;5008686;28;20709;-78
2023/06/29 06:26:18;;;;;;;15.57;10.82;;;;;26.00;101301.00;;;;5008898;28;20208;-78
2023/06/29 06:28:46;;;;;;;16.10;10.63;;;;;26.00;101301.00;;;;5008569;28;20197;-78
2023/06/29 06:31:13;;;;;;;19.77;11.45;;;;;26.10;101295.00;;;;5007723;28;20730;-79
2023/06/29 06:33:41;;;;;;;15.48;10.90;;;;;26.10;101293.00;;;;5008385;28;20208;-78
2023/06/29 06:36:10;;;;;;;15.40;10.98;;;;;26.10;101296.00;;;;5005740;28;20267;-78
2023/06/29 06:38:38;;;;;;;16.05;11.02;;;;;26.10;101293.00;;;;5007157;28;20300;-77
2023/06/29 06:41:05;;;;;;;16.85;11.68;;;;;26.10;101294.00;;;;5007084;28;20193;-77
2023/06/29 06:43:33;;;;;;;20.50;11.10;;;;;26.10;101296.00;;;;5008252;28;20207;-76
2023/06/29 06:46:00;;;;;;;18.02;11.55;;;;;26.10;101290.00;;;;5009055;28;20205;-76
2023/06/29 06:48:27;;;;;;;16.30;11.02;;;;;26.10;101292.00;;;;5007898;28;20208;-76
2023/06/29 06:50:54;;;;;;;16.88;10.65;;;;;26.10;101295.00;;;;5007700;28;20220;-77
2023/06/29 06:53:23;;;;;;;15.73;11.13;;;;;26.10;101298.00;;;;5008860;28;20200;-76
2023/06/29 06:55:50;;;;;;;15.23;10.45;;;;;26.10;101292.00;;;;5007764;28;20227;-77
2023/06/29 06:58:18;;;;;;;15.18;10.48;;;;;26.10;101293.00;;;;5008596;28;20225;-77
2023/06/29 07:00:45;;;;;;;15.75;9.82;;;;;26.10;101296.00;;;;5008446;28;20549;-78
2023/06/29 07:03:13;;;;;;;17.10;10.57;;;;;26.10;101295.00;;;;5004624;28;20206;-78
2023/06/29 07:05:40;;;;;;;14.77;10.73;;;;;26.10;101292.00;;;;5004712;28;20220;-78
2023/06/29 07:08:08;;;;;;;14.27;10.82;;;;;26.20;101287.00;;;;5002083;28;20283;-78
2023/06/29 07:10:36;;;;;;;15.38;10.18;;;;;26.20;101295.00;;;;5001108;28;20674;-78
2023/06/29 07:13:04;;;;;;;18.73;10.70;;;;;26.20;101299.00;;;;5003833;28;20201;-78
2023/06/29 07:15:31;;;;;;;16.17;11.30;;;;;26.20;101293.00;;;;5006718;28;20236;-78
2023/06/29 07:17:58;;;;;;;13.55;10.25;;;;;26.30;101288.00;;;;5005514;28;20207;-78
2023/06/29 07:20:26;;;;;;;16.58;10.68;;;;;26.30;101295.00;;;;5006300;28;20201;-78
2023/06/29 07:22:53;;;;;;;14.00;10.90;;;;;26.30;101295.00;;;;5005363;28;20220;-78
2023/06/29 07:25:21;;;;;;;15.00;10.40;;;;;26.30;101291.00;;;;5015055;28;20193;-78
2023/06/29 07:27:49;;;;;;;17.02;11.00;;;;;26.30;101293.00;;;;5007585;28;20193;-78
2023/06/29 07:30:17;;;;;;;16.35;10.48;;;;;26.40;101288.00;;;;5006018;28;20608;-78
2023/06/29 07:32:44;;;;;;;17.17;11.20;;;;;26.40;101290.00;;;;5007662;28;20247;-79
2023/06/29 07:35:12;;;;;;;15.10;10.25;;;;;26.40;101294.00;;;;5007860;28;20221;-78
2023/06/29 07:37:39;;;;;;;19.13;11.20;;;;;26.50;101290.00;;;;5001392;28;20212;-78
2023/06/29 07:40:08;;;;;;;16.33;11.05;;;;;26.50;101289.00;;;;5000340;28;20201;-78
2023/06/29 07:42:36;;;;;;;16.05;10.57;;;;;26.60;101295.00;;;;5009386;28;20292;-79
2023/06/29 07:45:06;;;;;;;20.27;11.63;;;;;26.60;101294.00;;;;5010841;28;20193;-78
2023/06/29 07:47:33;;;;;;;15.95;11.25;;;;;26.70;101290.00;;;;5006707;28;20197;-79
2023/06/29 07:50:00;;;;;;;15.60;10.95;;;;;26.80;101295.00;;;;5007957;28;20205;-79
2023/06/29 07:52:28;;;;;;;17.25;11.40;;;;;26.80;101294.00;;;;5009147;28;20201;-78
2023/06/29 07:54:55;;;;;;;15.60;10.85;;;;;26.90;101291.00;;;;5008736;28;20228;-79
2023/06/29 07:57:23;;;;;;;14.77;11.23;;;;;26.90;101290.00;;;;5004783;28;20197;-78
2023/06/29 07:59:50;;;;;;;15.75;10.75;;;;;27.00;101290.00;;;;5009330;28;20725;-79
2023/06/29 08:02:19;;;;;;;19.67;11.45;;;;;27.00;101288.00;;;;5006675;28;20209;-79
2023/06/29 08:04:46;;;;;;;15.35;10.70;;;;;27.10;101285.00;;;;5004664;28;20204;-78
2023/06/29 08:07:13;;;;;;;17.00;11.27;;;;;27.20;101285.00;;;;5009659;28;20233;-79
2023/06/29 08:09:41;;;;;;;15.52;10.90;;;;;27.20;101278.00;;;;5006450;28;21014;-78
2023/06/29 08:12:09;;;;;;;14.57;10.00;;;;;27.30;101274.00;;;;5006961;28;20196;-79
2023/06/29 08:14:38;;;;;;;15.05;10.48;;;;;27.30;101281.00;;;;5007665;28;20231;-79
2023/06/29 08:17:05;;;;;;;13.30;9.45;;;;;27.40;101282.00;;;;5006269;28;20233;-78
2023/06/29 08:19:34;;;;;;;18.23;11.75;;;;;27.40;101282.00;;;;5010628;28;20208;-79
2023/06/29 08:22:01;;;;;;;17.67;11.77;;;;;27.50;101278.00;;;;5003968;28;20201;-79
2023/06/29 08:24:29;;;;;;;17.67;11.32;;;;;27.50;101278.00;;;;5006296;28;20200;-79
2023/06/29 08:26:56;;;;;;;16.50;10.98;;;;;27.60;101275.00;;;;5009839;28;20223;-79
2023/06/29 08:29:23;;;;;;;15.73;10.20;;;;;27.60;101283.00;;;;5007581;28;20201;-79
2023/06/29 08:31:51;;;;;;;17.35;12.18;;;;;27.70;101281.00;;;;5018083;28;20622;-79
2023/06/29 08:34:19;;;;;;;15.90;11.25;;;;;27.80;101284.00;;;;5004696;28;20984;-79
2023/06/29 08:36:47;;;;;;;17.95;12.20;;;;;27.80;101281.00;;;;5005496;28;20216;-79
2023/06/29 08:39:15;;;;;;;16.02;12.15;;;;;27.90;101273.00;;;;5006744;28;20209;-80
2023/06/29 08:41:42;;;;;;;24.40;12.30;;;;;28.00;101273.00;;;;5005457;28;20212;-78
2023/06/29 08:44:09;;;;;;;16.02;12.23;;;;;28.10;101277.00;;;;5005990;28;20197;-78
2023/06/29 08:46:38;;;;;;;17.80;11.60;;;;;28.10;101277.00;;;;5002358;28;20205;-79
2023/06/29 08:49:09;;;;;;;17.55;11.82;;;;;28.20;101273.00;;;;5007460;28;20201;-80
2023/06/29 08:51:40;;;;;;;16.40;11.50;;;;;28.20;101270.00;;;;5006305;28;20247;-80
2023/06/29 08:54:10;;;;;;;17.77;11.75;;;;;28.30;101268.00;;;;5003301;28;20888;-80
2023/06/29 08:56:38;;;;;;;15.35;11.23;;;;;28.40;101279.00;;;;5003050;28;20988;-80
2023/06/29 08:59:06;;;;;;;15.10;11.70;;;;;28.50;101275.00;;;;5005052;28;20257;-80
2023/06/29 09:01:34;;;;;;;16.70;12.10;;;;;28.50;101282.00;;;;5001486;28;20198;-80
2023/06/29 09:04:02;;;;;;;16.92;12.70;;;;;28.60;101270.00;;;;5007335;28;20233;-79
2023/06/29 09:06:30;;;;;;;15.23;11.52;;;;;28.60;101274.00;;;;5007233;28;20208;-80
2023/06/29 09:08:57;;;;;;;15.60;11.13;;;;;28.70;101266.00;;;;5007411;28;20232;-80
2023/06/29 09:11:26;;;;;;;13.88;10.57;;;;;28.70;101274.00;;;;5006152;28;20205;-80
2023/06/29 09:13:54;;;;;;;15.68;11.18;;;;;28.70;101270.00;;;;5004350;28;20197;-81
2023/06/29 09:16:29;;;;;;;16.67;11.75;;;;;28.70;101274.00;;;;5007516;28;20232;-81
2023/06/29 09:18:58;;;;;;;15.30;11.85;;;;;28.70;101270.00;;;;5005612;28;20267;-80
2023/06/29 09:21:28;;;;;;;15.43;10.98;;;;;28.70;101267.00;;;;5006552;28;20208;-80
2023/06/29 09:23:57;;;;;;;16.25;11.27;;;;;28.70;101274.00;;;;5011838;28;20204;-81
2023/06/29 09:26:28;;;;;;;16.00;12.55;;;;;28.70;101268.00;;;;5010337;28;20207;-80
2023/06/29 09:29:00;;;;;;;14.25;11.20;;;;;28.70;101263.00;;;;5007418;28;20193;-80
2023/06/29 09:31:32;;;;;;;15.88;11.50;;;;;28.70;101267.00;;;;5003488;28;20206;-80
2023/06/29 09:34:17;;;;;;;14.48;10.68;;;;;28.60;101267.00;;;;5003819;28;20199;-80
2023/06/29 09:36:46;;;;;;;16.77;11.02;;;;;28.70;101268.00;;;;5001831;28;20709;-80
2023/06/29 09:39:13;;;;;;;16.10;12.00;;;;;28.70;101263.00;;;;5006349;28;20197;-80
2023/06/29 09:41:49;;;;;;;14.98;10.73;;;;;28.70;101261.00;;;;5009797;28;20207;-80
2023/06/29 09:44:19;;;;;;;16.75;11.40;;;;;28.70;101265.00;;;;5006055;28;20296;-80
2023/06/29 09:46:46;;;;;;;17.63;11.65;;;;;28.70;101262.00;;;;5004794;28;20208;-81
2023/06/29 09:49:14;;;;;;;16.23;10.52;;;;;28.70;101257.00;;;;5006789;28;20197;-80
2023/06/29 09:51:41;;;;;;;13.07;10.40;;;;;28.80;101268.00;;;;5006426;28;20599;-81
2023/06/29 09:54:13;;;;;;;15.90;11.02;;;;;28.70;101267.00;;;;5006555;28;20216;-80
2023/06/29 09:56:41;;;;;;;16.33;9.88;;;;;28.80;101268.00;;;;5002672;28;20233;-81
2023/06/29 09:59:11;;;;;;;15.25;10.32;;;;;28.80;101260.00;;;;5009076;28;20189;-81
2023/06/29 10:01:40;;;;;;;13.85;9.50;;;;;28.90;101265.00;;;;5002452;28;20750;-79
2023/06/29 10:04:08;;;;;;;15.95;10.93;;;;;28.90;101266.00;;;;5005265;28;20650;-80
2023/06/29 10:06:42;;;;;;;13.52;9.68;;;;;28.90;101262.00;;;;5005447;28;20231;-80
2023/06/29 10:09:11;;;;;;;15.88;9.85;;;;;28.90;101271.00;;;;5004797;28;20321;-80
2023/06/29 10:11:41;;;;;;;16.13;10.68;;;;;29.00;101266.00;;;;5001138;28;20220;-81
2023/06/29 10:14:10;;;;;;;13.75;9.73;;;;;29.00;101268.00;;;;4999143;28;20721;-80
2023/06/29 10:16:40;;;;;;;15.68;10.05;;;;;29.00;101264.00;;;;5007658;28;20208;-80
2023/06/29 10:19:18;;;;;;;16.15;10.90;;;;;28.90;101261.00;;;;5002560;28;20228;-80
2023/06/29 10:21:48;;;;;;;14.07;10.57;;;;;29.00;101256.00;;;;5004408;28;20206;-80
2023/06/29 10:24:18;;;;;;;16.95;10.40;;;;;29.00;101253.00;;;;4997083;28;20206;-80
2023/06/29 10:26:47;;;;;;;13.70;9.85;;;;;29.00;101261.00;;;;5003573;28;20584;-81
2023/06/29 10:29:16;;;;;;;17.55;11.77;;;;;29.00;101257.00;;;;5001708;28;20205;-82
2023/06/29 10:31:48;;;;;;;16.65;11.25;;;;;29.00;101259.00;;;;5006478;28;20301;-80
2023/06/29 10:34:15;;;;;;;14.60;10.73;;;;;29.10;101261.00;;;;5007796;28;20193;-80
2023/06/29 10:36:46;;;;;;;13.52;9.60;;;;;29.20;101263.00;;;;5005073;28;20221;-82
2023/06/29 10:39:43;;;;;;;16.02;9.65;;;;;29.10;101265.00;;;;4992716;28;20197;-81
2023/06/29 10:42:13;;;;;;;12.70;9.23;;;;;29.30;101258.00;;;;5003866;28;20275;-80
2023/06/29 10:44:46;;;;;;;14.55;9.98;;;;;29.40;101263.00;;;;5010590;28;20205;-80
2023/06/29 10:47:27;;;;;;;11.85;9.02;;;;;29.40;101258.00;;;;4996365;28;22109;-81
2023/06/29 10:50:18;;;;;;;13.90;10.00;;;;;29.50;101257.00;;;;4997324;28;20205;-81
2023/06/29 10:52:49;;;;;;;14.32;10.25;;;;;29.70;101249.00;;;;5010681;28;20209;-81
2023/06/29 10:55:18;;;;;;;15.18;10.57;;;;;29.80;101246.00;;;;5004529;28;20208;-80
2023/06/29 10:57:47;;;;;;;15.30;11.60;;;;;29.80;101252.00;;;;5006908;28;20225;-81
2023/06/29 11:00:17;;;;;;;13.00;9.68;;;;;29.80;101249.00;;;;5006399;28;20207;-81
2023/06/29 11:02:47;;;;;;;16.83;11.18;;;;;29.90;101246.00;;;;5001604;28;20681;-80
2023/06/29 11:05:15;;;;;;;13.85;10.65;;;;;29.90;101241.00;;;;5004909;28;20201;-79
2023/06/29 11:07:42;;;;;;;17.33;10.15;;;;;30.00;101246.00;;;;5006291;28;20612;-80
2023/06/29 11:10:11;;;;;;;16.13;10.95;;;;;30.00;101242.00;;;;5007613;28;20216;-80
2023/06/29 11:12:38;;;;;;;16.98;11.52;;;;;30.00;101243.00;;;;5013030;28;20196;-80
2023/06/29 11:15:11;;;;;;;12.98;10.20;;;;;30.10;101243.00;;;;5005338;28;20201;-81
2023/06/29 11:17:40;;;;;;;14.38;10.80;;;;;30.10;101249.00;;;;5009049;28;20230;-80
2023/06/29 11:20:11;;;;;;;12.90;10.27;;;;;30.10;101239.00;;;;5016220;28;20196;-81
2023/06/29 11:22:39;;;;;;;14.32;11.32;;;;;30.10;101238.00;;;;5007961;28;20296;-80
2023/06/29 11:25:07;;;;;;;15.60;11.23;;;;;30.20;101240.00;;;;5009972;28;20193;-80
2023/06/29 11:27:34;;;;;;;16.40;11.70;;;;;30.20;101236.00;;;;5010971;28;20961;-80
2023/06/29 11:30:04;;;;;;;14.65;11.07;;;;;30.20;101227.00;;;;5011151;28;20201;-80
2023/06/29 11:32:32;;;;;;;13.85;10.35;;;;;30.20;101227.00;;;;5010778;28;20193;-81
2023/06/29 11:35:02;;;;;;;14.43;9.90;;;;;30.20;101227.00;;;;5010440;28;20213;-81
2023/06/29 11:37:29;;;;;;;14.35;10.82;;;;;30.20;101226.00;;;;5009902;28;20228;-81
2023/06/29 11:39:57;;;;;;;14.48;9.50;;;;;30.10;101234.00;;;;5010558;28;20561;-80
2023/06/29 11:42:26;;;;;;;15.48;10.45;;;;;30.10;101236.00;;;;5008801;28;20197;-81
2023/06/29 11:45:02;;;;;;;16.30;10.90;;;;;30.00;101228.00;;;;5011156;28;20193;-80
2023/06/29 11:47:30;;;;;;;14.05;10.35;;;;;30.00;101227.00;;;;5007603;28;20197;-82
2023/06/29 11:49:59;;;;;;;15.82;11.20;;;;;30.00;101238.00;;;;5004670;28;20202;-80
2023/06/29 11:52:30;;;;;;;21.88;11.55;;;;;29.90;101233.00;;;;5008232;28;20204;-79
2023/06/29 11:54:57;;;;;;;23.00;11.75;;;;;29.90;101234.00;;;;5007904;28;20201;-80
2023/06/29 11:57:25;;;;;;;15.68;11.00;;;;;29.80;101233.00;;;;5017078;28;20228;-80
2023/06/29 11:59:52;;;;;;;17.95;10.10;;;;;29.80;101229.00;;;;5008877;28;20197;-79
2023/06/29 12:02:20;;;;;;;16.67;11.15;;;;;29.70;101232.00;;;;5010517;28;20775;-80